createdAt,value
2022-10-19T00:01:46.332Z,100297.75
2022-10-19T00:05:09.075Z,100293.44
2022-10-19T00:08:32.570Z,100298.72
2022-10-19T00:11:54.713Z,100297.06
2022-10-19T00:15:16.721Z,100291.03
2022-10-19T00:18:38.622Z,100297.13
2022-10-19T00:22:00.421Z,100296.28
2022-10-19T00:25:23.718Z,100304.28
2022-10-19T00:28:46.562Z,100298.38
2022-10-19T00:32:08.612Z,100308.78
2022-10-19T00:35:30.265Z,100304.56
2022-10-19T00:38:52.452Z,100290.09
2022-10-19T00:42:15.506Z,100302.03
2022-10-19T00:45:37.594Z,100313.31
2022-10-19T00:49:03.283Z,100318.63
2022-10-19T00:52:27.995Z,100328.31
2022-10-19T00:55:50.184Z,100326.66
2022-10-19T00:59:16.232Z,100327.69
2022-10-19T01:02:38.214Z,100329.44
2022-10-19T01:06:00.989Z,100336.34
2022-10-19T01:09:22.767Z,100335.56
2022-10-19T01:13:05.898Z,100342.69
2022-10-19T01:16:38.227Z,100338.47
2022-10-19T01:20:22.310Z,100340.31
2022-10-19T01:24:47.086Z,100346.47
2022-10-19T01:28:28.608Z,100352.56
2022-10-19T01:32:01.327Z,100337.34
2022-10-19T01:35:29.566Z,100347.75
2022-10-19T01:38:58.419Z,100334.22
2022-10-19T01:42:30.054Z,100351.41
2022-10-19T01:45:55.756Z,100341.41
2022-10-19T01:49:26.118Z,100350.84
2022-10-19T01:52:51.172Z,100351.00
2022-10-19T01:56:14.153Z,100359.72
2022-10-19T01:59:38.641Z,100350.56
2022-10-19T02:03:02.497Z,100354.19
2022-10-19T02:06:25.716Z,100368.72
2022-10-19T02:09:47.248Z,100373.13
2022-10-19T02:13:09.435Z,100376.66
2022-10-19T02:16:34.890Z,100379.34
2022-10-19T02:19:57.556Z,100387.25
2022-10-19T02:23:24.675Z,100380.63
2022-10-19T02:26:46.637Z,100380.28
2022-10-19T02:30:09.853Z,100379.56
2022-10-19T02:33:32.436Z,100384.28
2022-10-19T02:36:55.590Z,100384.78
2022-10-19T02:40:19.064Z,100377.44
2022-10-19T02:43:44.168Z,100395.63
2022-10-19T02:47:11.731Z,100406.97
2022-10-19T02:50:33.632Z,100412.41
2022-10-19T02:53:55.483Z,100416.22
2022-10-19T02:57:20.858Z,100423.31
2022-10-19T03:00:43.124Z,100417.50
2022-10-19T03:04:05.384Z,100412.72
2022-10-19T03:07:27.136Z,100418.06
2022-10-19T03:10:48.919Z,100427.75
2022-10-19T03:14:12.373Z,100419.41
2022-10-19T03:17:34.296Z,100425.75
2022-10-19T03:21:03.994Z,100419.84
2022-10-19T03:24:26.199Z,100431.38
2022-10-19T03:27:48.089Z,100435.06
2022-10-19T03:31:11.588Z,100438.59
2022-10-19T03:34:33.674Z,100432.81
2022-10-19T03:37:55.500Z,100445.91
2022-10-19T03:41:17.284Z,100431.47
2022-10-19T03:44:39.096Z,100440.16
2022-10-19T03:48:02.342Z,100436.06
2022-10-19T03:51:25.986Z,100438.91
2022-10-19T03:54:48.180Z,100453.75
2022-10-19T03:58:10.233Z,100453.91
2022-10-19T04:01:34.418Z,100448.84
2022-10-19T04:04:57.528Z,100452.41
2022-10-19T04:08:19.229Z,100449.13
2022-10-19T04:11:41.167Z,100450.09
2022-10-19T04:15:03.053Z,100454.56
2022-10-19T04:18:24.896Z,100436.84
2022-10-19T04:21:50.196Z,100462.56
2022-10-19T04:25:12.523Z,100459.25
2022-10-19T04:28:34.253Z,100461.13
2022-10-19T04:31:56.110Z,100448.56
2022-10-19T04:35:17.928Z,100460.47
2022-10-19T04:38:41.368Z,100451.25
2022-10-19T04:42:03.285Z,100466.72
2022-10-19T04:45:25.209Z,100470.34
2022-10-19T04:48:48.214Z,100466.09
2022-10-19T04:52:10.089Z,100468.72
2022-10-19T04:55:33.293Z,100485.13
2022-10-19T04:58:57.685Z,100479.09
2022-10-19T05:02:19.581Z,100479.22
2022-10-19T05:05:41.614Z,100472.56
2022-10-19T05:09:03.339Z,100492.22
2022-10-19T05:13:29.557Z,100487.97
2022-10-19T05:16:52.850Z,100494.91
2022-10-19T05:20:14.910Z,100506.09
2022-10-19T05:23:36.937Z,100466.88
2022-10-19T05:27:49.206Z,100516.47
2022-10-19T05:31:14.068Z,100519.91
2022-10-19T05:34:37.196Z,100503.72
2022-10-19T05:37:59.178Z,100520.84
2022-10-19T05:41:24.360Z,100532.03
2022-10-19T05:44:46.188Z,100539.72
2022-10-19T05:48:07.987Z,100539.66
2022-10-19T05:56:25.595Z,100533.59
2022-10-19T05:59:47.350Z,100537.88
2022-10-19T06:03:09.137Z,100520.88
2022-10-19T06:06:32.921Z,100533.59
2022-10-19T06:09:54.836Z,100546.41
2022-10-19T06:13:20.948Z,100551.50
2022-10-19T06:16:43.536Z,100550.59
2022-10-19T06:21:06.913Z,100555.72
2022-10-19T06:24:28.545Z,100565.06
2022-10-19T06:27:50.611Z,100564.25
2022-10-19T06:31:14.998Z,100563.31
2022-10-19T06:34:36.697Z,100558.19
2022-10-19T06:37:58.983Z,100587.19
2022-10-19T06:41:21.225Z,100587.94
2022-10-19T06:44:43.360Z,100582.72
2022-10-19T06:48:07.832Z,100585.25
2022-10-19T06:51:32.150Z,100581.81
2022-10-19T06:55:19.420Z,100597.16
2022-10-19T06:58:41.758Z,100605.59
2022-10-19T07:02:03.852Z,100602.00
2022-10-19T07:05:27.848Z,100578.78
2022-10-19T07:08:49.908Z,100606.06
2022-10-19T07:12:11.483Z,100616.28
2022-10-19T07:15:33.645Z,100625.63
2022-10-19T07:19:57.067Z,100633.25
2022-10-19T07:23:19.920Z,100638.31
2022-10-19T07:26:41.814Z,100635.59
2022-10-19T07:30:04.088Z,100645.00
2022-10-19T07:33:25.764Z,100631.94
2022-10-19T07:36:49.140Z,100634.50
2022-10-19T07:40:14.297Z,100612.38
2022-10-19T07:43:36.504Z,100644.50
2022-10-19T07:46:59.378Z,100648.59
2022-10-19T07:50:25.407Z,100659.53
2022-10-19T07:53:49.080Z,100644.88
2022-10-19T07:57:14.027Z,100662.19
2022-10-19T08:00:36.022Z,100659.38
2022-10-19T08:07:41.770Z,100683.22
2022-10-19T08:11:08.576Z,100685.53
2022-10-19T08:14:32.138Z,100695.59
2022-10-19T08:17:54.064Z,100681.94
2022-10-19T08:21:16.019Z,100678.66
2022-10-19T08:24:37.812Z,100715.50
2022-10-19T08:27:59.692Z,100717.97
2022-10-19T08:36:11.644Z,100724.75
2022-10-19T08:39:33.373Z,100742.78
2022-10-19T08:43:00.426Z,100729.03
2022-10-19T08:46:33.795Z,100723.00
2022-10-19T08:49:56.775Z,100744.53
2022-10-19T08:53:28.333Z,100747.00
2022-10-19T08:56:58.298Z,100751.25
2022-10-19T09:04:09.008Z,100757.34
2022-10-19T09:07:34.538Z,100758.25
2022-10-19T09:10:58.687Z,100757.28
2022-10-19T09:14:27.071Z,100757.34
2022-10-19T09:17:49.420Z,100751.06
2022-10-19T09:21:16.601Z,100763.88
2022-10-19T09:24:44.239Z,100769.75
2022-10-19T09:28:36.467Z,100755.84
2022-10-19T09:32:05.322Z,100780.81
2022-10-19T09:35:31.685Z,100787.69
2022-10-19T09:38:53.659Z,100720.06
2022-10-19T09:42:24.791Z,100790.50
2022-10-19T09:45:53.132Z,100792.03
2022-10-19T09:49:15.099Z,100798.47
2022-10-19T09:52:39.205Z,100789.69
2022-10-19T09:56:06.325Z,100781.00
2022-10-19T09:59:32.275Z,100804.94
2022-10-19T10:02:56.864Z,100814.59
2022-10-19T10:06:41.667Z,100803.38
2022-10-19T10:10:10.072Z,100806.81
2022-10-19T10:13:32.099Z,100810.94
2022-10-19T10:16:57.369Z,100808.19
2022-10-19T10:20:30.515Z,100818.25
2022-10-19T10:24:05.890Z,100821.44
2022-10-19T10:27:33.196Z,100839.47
2022-10-19T10:31:00.930Z,100828.34
2022-10-19T10:38:21.512Z,100833.44
2022-10-19T10:41:45.989Z,100838.31
2022-10-19T10:45:18.477Z,100827.75
2022-10-19T10:48:44.218Z,100806.97
2022-10-19T11:00:53.069Z,100847.44
2022-10-19T11:04:20.709Z,100856.88
2022-10-19T11:07:46.069Z,100843.81
2022-10-19T11:11:15.872Z,100791.63
2022-10-19T11:15:15.870Z,100716.09
2022-10-19T11:18:53.102Z,100868.09
2022-10-19T11:22:27.524Z,100871.53
2022-10-19T11:26:04.925Z,100861.00
2022-10-19T11:29:39.346Z,100869.31
2022-10-19T11:37:07.397Z,100876.22
2022-10-19T11:40:36.767Z,100857.53
2022-10-19T11:44:18.112Z,100878.69
2022-10-19T11:48:03.959Z,100864.28
2022-10-19T11:51:35.658Z,100890.81
2022-10-19T11:55:05.951Z,100868.72
2022-10-19T11:58:43.030Z,100901.47
2022-10-19T12:02:26.664Z,100890.09
2022-10-19T12:06:09.338Z,100900.72
2022-10-19T12:09:44.489Z,100899.63
2022-10-19T12:13:14.727Z,100903.66
2022-10-19T12:16:41.488Z,100900.00
2022-10-19T12:20:07.942Z,100906.88
2022-10-19T12:23:34.405Z,100898.16
2022-10-19T12:26:56.717Z,100894.16
2022-10-19T12:30:22.359Z,100899.38
2022-10-19T12:33:50.871Z,100902.03
2022-10-19T12:37:19.844Z,100899.50
2022-10-19T12:40:47.531Z,100908.94
2022-10-19T12:44:43.378Z,100908.69
2022-10-19T12:48:24.779Z,100872.97
2022-10-19T12:51:47.872Z,100920.16
2022-10-19T12:55:24.816Z,100915.22
2022-10-19T12:58:51.320Z,100912.91
2022-10-19T13:02:27.094Z,100911.13
2022-10-19T13:05:59.469Z,100911.97
2022-10-19T13:09:26.100Z,100928.38
2022-10-19T13:12:48.699Z,100915.09
2022-10-19T13:16:48.626Z,100935.19
2022-10-19T13:20:51.588Z,100943.91
2022-10-19T13:24:42.287Z,100947.53
2022-10-19T13:28:39.733Z,100946.78
2022-10-19T13:32:39.933Z,100952.06
2022-10-19T13:36:09.683Z,100958.19
2022-10-19T13:39:31.810Z,100960.84
2022-10-19T13:43:00.765Z,100956.63
2022-10-19T13:46:33.739Z,100954.97
2022-10-19T13:50:14.168Z,100950.03
2022-10-19T13:53:45.212Z,100928.84
2022-10-19T13:57:19.103Z,100965.69
2022-10-19T14:00:59.082Z,100965.78
2022-10-19T14:04:28.260Z,100951.53
2022-10-19T14:08:04.608Z,100989.31
2022-10-19T14:11:31.196Z,100985.03
2022-10-19T14:14:54.683Z,100986.00
2022-10-19T14:18:29.753Z,100999.13
2022-10-19T14:21:51.611Z,101005.25
2022-10-19T14:25:19.766Z,101009.69
2022-10-19T14:28:43.239Z,100986.81
2022-10-19T15:02:00.791Z,101038.88
2022-10-19T15:05:27.039Z,101045.06
2022-10-19T15:12:26.372Z,101046.22
2022-10-19T15:15:54.220Z,101051.53
2022-10-19T15:19:30.932Z,101049.09
2022-10-19T15:22:54.199Z,101051.81
2022-10-19T15:26:23.407Z,101045.09
2022-10-19T15:29:58.223Z,101063.31
2022-10-19T15:33:24.780Z,101034.28
2022-10-19T15:37:00.030Z,101045.69
2022-10-19T15:40:31.904Z,101068.94
2022-10-19T15:43:57.416Z,101040.81
2022-10-19T15:47:24.996Z,101079.44
2022-10-19T15:50:50.805Z,101084.78
2022-10-19T15:54:18.683Z,101090.94
2022-10-19T15:57:41.946Z,101094.53
2022-10-19T16:01:07.880Z,101110.16
2022-10-19T16:04:31.051Z,101086.31
2022-10-19T16:08:00.234Z,101114.69
2022-10-19T16:11:25.239Z,101113.88
2022-10-19T16:14:48.416Z,101068.56
2022-10-19T16:18:13.838Z,101117.47
2022-10-19T16:21:40.598Z,101102.94
2022-10-19T16:29:50.780Z,101113.34
2022-10-19T16:33:13.837Z,101109.94
2022-10-19T16:37:09.040Z,101126.38
2022-10-19T16:40:30.992Z,101115.22
2022-10-19T16:43:55.855Z,101129.88
2022-10-19T16:47:20.278Z,101122.22
2022-10-19T16:54:06.431Z,101136.00
2022-10-19T16:57:28.539Z,101129.16
2022-10-19T17:00:50.432Z,101142.13
2022-10-19T17:04:15.199Z,101154.19
2022-10-19T17:07:37.231Z,101117.34
2022-10-19T17:10:59.369Z,101142.19
2022-10-19T17:14:21.021Z,101150.81
2022-10-19T17:17:43.009Z,101168.03
2022-10-19T17:21:08.416Z,101144.81
2022-10-19T17:24:30.504Z,101119.94
2022-10-19T17:27:52.541Z,101163.66
2022-10-19T17:31:15.543Z,101145.63
2022-10-19T17:34:37.775Z,101157.59
2022-10-19T17:38:01.273Z,101158.38
2022-10-19T17:41:23.740Z,101154.09
2022-10-19T17:44:45.711Z,101154.03
2022-10-19T17:48:08.872Z,101171.25
2022-10-19T17:51:33.199Z,101148.91
2022-10-19T17:55:13.571Z,101168.63
2022-10-19T17:58:39.738Z,101158.31
2022-10-19T18:02:01.804Z,101164.31
2022-10-19T18:05:26.973Z,101169.47
2022-10-19T18:08:50.881Z,101171.25
2022-10-19T18:12:14.417Z,101148.97
2022-10-19T18:15:36.547Z,101181.59
2022-10-19T18:18:59.974Z,101183.28
2022-10-19T18:22:22.026Z,101179.81
2022-10-19T18:25:54.060Z,101185.00
2022-10-19T18:29:21.888Z,101187.59
2022-10-19T18:32:43.787Z,101156.69
2022-10-19T18:36:06.793Z,101191.88
2022-10-19T18:39:28.789Z,101191.03
2022-10-19T18:42:50.978Z,101185.03
2022-10-19T18:46:14.262Z,101191.06
2022-10-19T18:49:36.484Z,101185.09
2022-10-19T18:52:58.608Z,101197.19
2022-10-19T18:56:22.253Z,101194.63
2022-10-19T18:59:44.368Z,101195.53
2022-10-19T19:03:07.976Z,101195.56
2022-10-19T19:06:31.759Z,101174.97
2022-10-19T19:09:53.455Z,101184.50
2022-10-19T19:13:15.358Z,101191.34
2022-10-19T19:16:39.874Z,101190.53
2022-10-19T19:20:03.800Z,101199.16
2022-10-19T19:23:26.257Z,101196.63
2022-10-19T19:26:50.765Z,101202.66
2022-10-19T19:30:12.746Z,101205.28
2022-10-19T19:33:34.718Z,101204.44
2022-10-19T19:36:58.133Z,101222.50
2022-10-19T19:40:20.442Z,101210.50
2022-10-19T19:43:43.819Z,101212.25
2022-10-19T19:47:06.038Z,101214.84
2022-10-19T19:50:28.451Z,101218.28
2022-10-19T19:53:51.933Z,101215.72
2022-10-19T19:57:14.276Z,101224.31
2022-10-19T20:00:36.224Z,101235.50
2022-10-19T20:04:00.267Z,101222.63
2022-10-19T20:07:22.032Z,101227.75
2022-10-19T20:10:45.378Z,101230.34
2022-10-19T20:14:07.449Z,101236.38
2022-10-19T20:17:29.310Z,101223.47
2022-10-19T20:20:51.269Z,101220.06
2022-10-19T20:24:13.818Z,101228.66
2022-10-19T20:27:37.892Z,101229.50
2022-10-19T20:31:04.540Z,101231.22
2022-10-19T20:34:26.698Z,101236.38
2022-10-19T20:37:50.523Z,101228.63
2022-10-19T20:41:12.408Z,101239.78
2022-10-19T20:44:35.611Z,101224.31
2022-10-19T20:47:57.678Z,101226.91
2022-10-19T20:51:24.866Z,101231.19
2022-10-19T20:54:49.823Z,101224.28
2022-10-19T20:58:11.512Z,101229.44
2022-10-19T21:01:37.007Z,101237.13
2022-10-19T21:04:58.924Z,101228.56
2022-10-19T21:08:20.949Z,101236.25
2022-10-19T21:11:44.863Z,101237.09
2022-10-19T21:15:06.934Z,101232.78
2022-10-19T21:18:30.211Z,101237.91
2022-10-19T21:21:55.561Z,101224.16
2022-10-19T21:25:17.704Z,101223.31
2022-10-19T21:28:40.164Z,101223.31
2022-10-19T21:32:02.161Z,101212.13
2022-10-19T21:35:25.595Z,101191.47
2022-10-19T21:38:47.509Z,101205.25
2022-10-19T21:42:09.563Z,101202.66
2022-10-19T21:45:31.325Z,101200.91
2022-10-19T21:48:54.081Z,101191.44
2022-10-19T21:52:17.289Z,101198.31
2022-10-19T21:55:39.204Z,101197.44
2022-10-19T21:59:01.111Z,101193.13
2022-10-19T22:02:22.912Z,101193.09
2022-10-19T22:05:51.155Z,101196.53
2022-10-19T22:09:18.192Z,101211.97
2022-10-19T22:12:40.947Z,101206.84
2022-10-19T22:16:08.823Z,101194.81
2022-10-19T22:19:31.476Z,101197.34
2022-10-19T22:22:55.025Z,101207.66
2022-10-19T22:26:22.356Z,101200.78
2022-10-19T22:29:45.789Z,101198.19
2022-10-19T22:33:08.542Z,101181.81
2022-10-19T22:36:31.601Z,101194.75
2022-10-19T22:39:55.073Z,101184.41
2022-10-19T22:44:11.588Z,101201.63
2022-10-19T22:47:35.777Z,101192.22
2022-10-19T22:50:58.635Z,101183.59
2022-10-19T22:54:21.383Z,101191.31
2022-10-19T22:57:44.043Z,101149.16
2022-10-19T23:01:09.523Z,101190.44
2022-10-19T23:04:33.758Z,101195.56
2022-10-19T23:07:56.820Z,101205.91
2022-10-19T23:11:19.704Z,101202.44
2022-10-19T23:14:42.532Z,101204.13
2022-10-19T23:18:05.181Z,101199.00
2022-10-19T23:21:29.168Z,101190.38
2022-10-19T23:24:51.718Z,101197.19
2022-10-19T23:28:14.573Z,101166.28
2022-10-19T23:31:37.126Z,101204.16
2022-10-19T23:34:59.673Z,101188.69
2022-10-19T23:38:23.969Z,101202.44
2022-10-19T23:41:46.616Z,101184.38
2022-10-19T23:45:09.964Z,101198.13
2022-10-19T23:48:33.151Z,101196.41
2022-10-19T23:51:55.803Z,101193.84
2022-10-19T23:55:20.097Z,101205.88
